Time;durP1;ratioP1;P1;durP2;ratioP2;P2;SDS_P1;SDS_P2;PMS_P1;PMS_P2;Temp;Humidity;BMP_temperature;BMP_pressure;BME280_temperature;BME280_humidity;BME280_pressure;Samples;Min_cycle;Max_cycle;Signal;HPM_P1;HPM_P2
2023/08/07 00:00:36;;;;;;;81.50;51.75;;;16.80;90.40;;;;;;4956678;28;90789;-75
2023/08/07 00:03:02;;;;;;;81.43;52.17;;;16.70;90.70;;;;;;4963589;28;90575;-75
2023/08/07 00:05:28;;;;;;;81.20;52.15;;;16.70;90.40;;;;;;4948997;28;90674;-73
2023/08/07 00:07:54;;;;;;;81.13;52.20;;;16.70;90.60;;;;;;4961493;28;94126;-75
2023/08/07 00:10:20;;;;;;;82.22;51.75;;;16.70;90.50;;;;;;4947842;28;89242;-74
2023/08/07 00:12:45;;;;;;;80.88;52.10;;;16.70;90.60;;;;;;4926393;28;92995;-78
2023/08/07 00:15:11;;;;;;;81.53;51.92;;;16.70;90.50;;;;;;4953293;28;89531;-76
2023/08/07 00:17:37;;;;;;;81.93;51.97;;;16.70;90.50;;;;;;4939438;28;94384;-75
2023/08/07 00:20:04;;;;;;;81.47;51.92;;;16.60;90.90;;;;;;4948458;28;93281;-78
2023/08/07 00:22:30;;;;;;;80.90;52.15;;;16.60;90.50;;;;;;4959914;28;93974;-72
2023/08/07 00:24:55;;;;;;;80.47;52.10;;;16.60;90.90;;;;;;4944364;28;92945;-76
2023/08/07 00:27:21;;;;;;;81.43;51.97;;;16.60;90.70;;;;;;4941601;28;90435;-74
2023/08/07 00:29:47;;;;;;;81.10;51.75;;;16.60;90.90;;;;;;4934030;28;88836;-73
2023/08/07 00:32:12;;;;;;;80.35;51.85;;;16.60;90.70;;;;;;4936508;28;89317;-75
2023/08/07 00:34:38;;;;;;;81.30;52.08;;;16.60;90.50;;;;;;4951834;28;89101;-72
2023/08/07 00:37:04;;;;;;;81.90;52.13;;;16.50;90.50;;;;;;4934879;28;91989;-77
2023/08/07 00:39:29;;;;;;;80.00;51.75;;;16.50;90.60;;;;;;4943755;28;97448;-75
2023/08/07 00:41:55;;;;;;;81.07;51.90;;;16.50;90.60;;;;;;4945062;28;92611;-75
2023/08/07 00:44:20;;;;;;;81.40;52.17;;;16.50;90.60;;;;;;4942004;28;89153;-77
2023/08/07 00:46:46;;;;;;;80.75;52.22;;;16.50;90.70;;;;;;4942603;28;94966;-79
2023/08/07 00:49:12;;;;;;;81.25;52.28;;;16.50;90.70;;;;;;4971584;28;89014;-77
2023/08/07 00:51:39;;;;;;;81.25;52.13;;;16.40;90.50;;;;;;4960131;28;91705;-77
2023/08/07 00:54:07;;;;;;;80.15;51.92;;;16.50;90.60;;;;;;4942054;28;91836;-74
2023/08/07 00:56:33;;;;;;;80.03;51.80;;;16.40;90.50;;;;;;4955937;28;91239;-79
2023/08/07 00:59:00;;;;;;;81.60;52.47;;;16.50;90.40;;;;;;4955695;28;89204;-77
2023/08/07 01:01:26;;;;;;;81.00;52.55;;;16.40;90.30;;;;;;4950264;28;91416;-75
2023/08/07 01:03:52;;;;;;;82.13;52.15;;;16.40;90.50;;;;;;4950466;28;93002;-77
2023/08/07 01:06:17;;;;;;;81.70;52.22;;;16.40;90.60;;;;;;4937198;28;92676;-75
2023/08/07 01:08:44;;;;;;;83.28;52.30;;;16.40;90.50;;;;;;4937529;28;93788;-77
2023/08/07 01:11:30;;;;;;;83.10;52.67;;;16.40;90.50;;;;;;4959689;28;90228;-75
2023/08/07 01:14:06;;;;;;;81.88;52.35;;;16.30;90.60;;;;;;4931284;28;88865;-75
2023/08/07 01:16:42;;;;;;;82.07;52.22;;;16.30;90.60;;;;;;4951303;28;93055;-78
2023/08/07 01:19:24;;;;;;;80.95;52.13;;;16.30;90.40;;;;;;4944198;28;90602;-76
2023/08/07 01:22:03;;;;;;;81.13;52.25;;;16.30;90.60;;;;;;4947052;28;90923;-77
2023/08/07 01:24:28;;;;;;;82.47;52.30;;;16.30;90.60;;;;;;4952245;28;93422;-76
2023/08/07 01:27:00;;;;;;;82.22;52.05;;;16.30;90.60;;;;;;4971423;28;90470;-75
2023/08/07 01:29:37;;;;;;;80.93;51.80;;;16.30;90.60;;;;;;4959706;28;89576;-75
2023/08/07 01:32:07;;;;;;;80.10;52.08;;;16.30;90.70;;;;;;4954439;28;89326;-74
2023/08/07 01:34:34;;;;;;;80.47;51.77;;;16.20;90.80;;;;;;4955291;28;92395;-75
2023/08/07 01:37:02;;;;;;;80.35;51.80;;;16.20;90.70;;;;;;4954075;28;89154;-74
2023/08/07 01:39:28;;;;;;;81.63;51.92;;;16.20;90.70;;;;;;4941722;28;89571;-76
2023/08/07 01:41:55;;;;;;;79.90;52.10;;;16.20;90.60;;;;;;4939295;28;91789;-76
2023/08/07 01:44:20;;;;;;;81.50;52.35;;;16.20;90.60;;;;;;4955793;28;88404;-74
2023/08/07 01:46:46;;;;;;;81.57;52.00;;;16.20;90.80;;;;;;4947087;28;92027;-76
2023/08/07 01:49:12;;;;;;;81.72;52.50;;;16.20;90.70;;;;;;4934533;28;91585;-77
2023/08/07 01:51:37;;;;;;;80.43;52.13;;;16.10;90.70;;;;;;4947675;28;90625;-75
2023/08/07 01:54:03;;;;;;;81.18;51.95;;;16.10;90.70;;;;;;4942743;28;89630;-77
2023/08/07 01:56:28;;;;;;;81.47;51.88;;;16.10;90.80;;;;;;4939410;28;94972;-76
2023/08/07 01:58:54;;;;;;;79.45;51.60;;;16.10;90.80;;;;;;4929364;28;95799;-77
2023/08/07 02:01:19;;;;;;;81.15;51.95;;;16.10;90.80;;;;;;4957312;28;89339;-73
2023/08/07 02:03:45;;;;;;;80.88;52.35;;;16.10;90.80;;;;;;4941635;28;89245;-73
2023/08/07 02:06:11;;;;;;;80.45;52.05;;;16.00;90.70;;;;;;4939874;28;88886;-74
2023/08/07 02:08:36;;;;;;;80.32;52.10;;;16.00;90.80;;;;;;4970267;28;88637;-77
2023/08/07 02:11:02;;;;;;;81.47;52.08;;;16.00;90.70;;;;;;4960309;28;93177;-73
2023/08/07 02:13:28;;;;;;;80.50;52.00;;;16.00;90.80;;;;;;4924790;28;92331;-76
2023/08/07 02:15:53;;;;;;;79.80;51.85;;;15.90;90.70;;;;;;4941136;28;92908;-76
2023/08/07 02:18:19;;;;;;;81.80;52.13;;;15.90;90.80;;;;;;4955669;28;90346;-74
2023/08/07 02:20:46;;;;;;;80.20;51.88;;;15.90;90.70;;;;;;4952978;28;92484;-76
2023/08/07 02:23:11;;;;;;;81.35;52.10;;;15.90;90.80;;;;;;4959609;28;88978;-77
2023/08/07 02:25:37;;;;;;;79.72;51.78;;;15.90;90.80;;;;;;4939471;28;91081;-74
2023/08/07 02:28:02;;;;;;;80.22;52.00;;;15.80;90.80;;;;;;4955707;28;90403;-74
2023/08/07 02:30:30;;;;;;;79.90;51.90;;;15.80;90.90;;;;;;4937525;28;89088;-75
2023/08/07 02:32:56;;;;;;;80.25;52.05;;;15.80;90.80;;;;;;4943593;28;88618;-79
2023/08/07 02:35:21;;;;;;;81.68;52.38;;;15.80;90.90;;;;;;4933848;28;90875;-75
2023/08/07 02:37:47;;;;;;;79.75;51.90;;;15.80;90.80;;;;;;4966183;28;91523;-74
2023/08/07 02:40:15;;;;;;;81.72;52.15;;;15.70;90.90;;;;;;4958131;28;90637;-76
2023/08/07 02:42:42;;;;;;;80.32;51.97;;;15.70;90.90;;;;;;4945016;28;89953;-74
2023/08/07 02:45:08;;;;;;;82.60;52.15;;;15.70;90.70;;;;;;4963137;28;94880;-76
2023/08/07 02:47:33;;;;;;;80.00;52.15;;;15.70;90.80;;;;;;4952405;28;93222;-73
2023/08/07 02:49:59;;;;;;;80.72;52.42;;;15.70;90.90;;;;;;4939450;28;89572;-75
2023/08/07 02:52:25;;;;;;;81.93;51.83;;;15.60;90.70;;;;;;4951017;28;89985;-77
2023/08/07 02:54:50;;;;;;;79.45;51.80;;;15.60;90.80;;;;;;4949423;28;92216;-76
2023/08/07 02:57:16;;;;;;;80.22;51.92;;;15.60;90.90;;;;;;4957956;28;88565;-76
2023/08/07 02:59:41;;;;;;;79.72;51.92;;;15.60;90.80;;;;;;4936868;28;89785;-72
2023/08/07 03:02:07;;;;;;;80.85;52.00;;;15.60;90.90;;;;;;4956772;28;89661;-75
2023/08/07 03:04:32;;;;;;;80.90;52.15;;;15.60;90.80;;;;;;4945968;28;92161;-75
2023/08/07 03:06:59;;;;;;;81.53;52.03;;;15.50;90.80;;;;;;4951047;28;89926;-77
2023/08/07 03:09:24;;;;;;;79.25;51.85;;;15.50;90.80;;;;;;4950229;28;90759;-76
2023/08/07 03:11:50;;;;;;;80.10;52.13;;;15.50;90.80;;;;;;4962399;28;91646;-76
2023/08/07 03:14:16;;;;;;;80.38;52.15;;;15.50;90.80;;;;;;4942645;28;90858;-73
2023/08/07 03:16:41;;;;;;;80.22;52.15;;;15.40;90.80;;;;;;4940520;28;93639;-74
2023/08/07 03:19:07;;;;;;;80.35;52.17;;;15.40;90.80;;;;;;4957253;28;89196;-77
2023/08/07 03:21:32;;;;;;;80.65;52.03;;;15.40;90.80;;;;;;4950315;28;92524;-75
2023/08/07 03:23:58;;;;;;;80.93;52.13;;;15.40;90.80;;;;;;4947572;28;89403;-76
2023/08/07 03:26:24;;;;;;;80.13;52.33;;;15.40;90.80;;;;;;4942276;28;92396;-78
2023/08/07 03:28:50;;;;;;;80.40;52.00;;;15.40;90.80;;;;;;4965487;28;90414;-74
2023/08/07 03:31:16;;;;;;;80.03;52.25;;;15.40;90.90;;;;;;4945637;28;90817;-77
2023/08/07 03:33:42;;;;;;;79.95;52.35;;;15.30;90.90;;;;;;4956412;28;93750;-74
2023/08/07 03:36:09;;;;;;;80.45;52.45;;;15.30;90.90;;;;;;4958654;28;90937;-77
2023/08/07 03:38:34;;;;;;;80.18;51.97;;;15.30;90.90;;;;;;4970922;28;91390;-77
2023/08/07 03:41:00;;;;;;;80.97;52.17;;;15.20;90.90;;;;;;4920801;28;92406;-76
2023/08/07 03:43:25;;;;;;;80.72;52.15;;;15.20;90.90;;;;;;4942688;28;89464;-74
2023/08/07 03:45:56;;;;;;;80.93;51.95;;;15.20;90.90;;;;;;4955791;28;88723;-73
2023/08/07 03:48:22;;;;;;;79.40;52.10;;;15.20;90.80;;;;;;4920637;28;90183;-73
2023/08/07 03:50:47;;;;;;;80.32;52.35;;;15.20;90.90;;;;;;4938422;28;91713;-77
2023/08/07 03:53:13;;;;;;;80.50;52.00;;;15.20;90.90;;;;;;4934483;28;94927;-75
2023/08/07 03:55:39;;;;;;;79.65;51.88;;;15.20;90.80;;;;;;4954277;28;91782;-76
2023/08/07 03:58:05;;;;;;;80.50;52.20;;;15.20;90.90;;;;;;4961198;28;92810;-77
2023/08/07 04:00:30;;;;;;;80.65;51.90;;;15.20;90.80;;;;;;4930474;28;90134;-76
2023/08/07 04:02:56;;;;;;;78.93;51.60;;;15.20;90.80;;;;;;4955187;28;89519;-73
2023/08/07 04:05:21;;;;;;;80.90;51.80;;;15.20;90.70;;;;;;4928219;28;90907;-77
2023/08/07 04:07:47;;;;;;;79.65;51.97;;;15.20;90.90;;;;;;4927831;28;94879;-76
2023/08/07 04:10:13;;;;;;;81.20;51.65;;;15.20;91.00;;;;;;4959790;28;90567;-73
2023/08/07 04:12:39;;;;;;;79.10;51.67;;;15.20;91.10;;;;;;4961544;28;93351;-76
2023/08/07 04:15:05;;;;;;;80.80;51.92;;;15.20;91.00;;;;;;4951240;28;91297;-73
2023/08/07 04:17:30;;;;;;;81.35;52.00;;;15.20;91.30;;;;;;4938091;28;91489;-73
2023/08/07 04:19:56;;;;;;;80.75;51.95;;;15.20;91.10;;;;;;4970673;28;89051;-74
2023/08/07 04:22:21;;;;;;;80.10;52.03;;;15.20;91.10;;;;;;4939397;28;91288;-76
2023/08/07 04:24:47;;;;;;;80.28;52.00;;;15.20;91.00;;;;;;4955219;28;90509;-77
2023/08/07 04:27:13;;;;;;;81.25;52.08;;;15.20;90.90;;;;;;4945549;28;90822;-75
2023/08/07 04:29:38;;;;;;;79.75;52.03;;;15.20;91.00;;;;;;4949083;28;89158;-75
2023/08/07 04:32:04;;;;;;;79.82;51.80;;;15.20;91.00;;;;;;4920306;28;91535;-75
2023/08/07 04:34:30;;;;;;;79.43;51.80;;;15.20;91.10;;;;;;4940434;28;92135;-76
2023/08/07 04:36:56;;;;;;;80.10;52.10;;;15.20;91.00;;;;;;4969541;28;88806;-77
2023/08/07 04:39:22;;;;;;;79.32;51.80;;;15.20;91.00;;;;;;4951134;28;89295;-75
2023/08/07 04:41:49;;;;;;;80.25;52.17;;;15.30;91.00;;;;;;4959462;28;92567;-74
2023/08/07 04:44:16;;;;;;;79.80;52.33;;;15.30;91.00;;;;;;4963251;28;90037;-77
2023/08/07 04:46:41;;;;;;;81.07;52.13;;;15.30;90.90;;;;;;4967301;28;91649;-74
2023/08/07 04:49:07;;;;;;;81.03;51.92;;;15.30;91.00;;;;;;4966248;28;90265;-75
2023/08/07 04:51:33;;;;;;;80.60;51.83;;;15.30;91.00;;;;;;4964160;28;93100;-76
2023/08/07 04:53:58;;;;;;;81.65;51.83;;;15.30;91.00;;;;;;4964172;28;92290;-75
2023/08/07 04:56:24;;;;;;;80.75;52.13;;;15.30;91.00;;;;;;4955406;28;89173;-77
2023/08/07 04:58:50;;;;;;;79.60;51.80;;;15.30;91.30;;;;;;4969839;28;89693;-73
2023/08/07 05:01:15;;;;;;;80.80;52.13;;;15.30;91.10;;;;;;4922463;28;94646;-74
2023/08/07 05:03:42;;;;;;;79.15;51.75;;;15.30;91.10;;;;;;4935068;28;92901;-74
2023/08/07 05:06:08;;;;;;;80.30;51.95;;;15.30;91.10;;;;;;4944249;28;92096;-74
2023/08/07 05:08:34;;;;;;;79.82;52.10;;;15.30;91.20;;;;;;4951187;28;90991;-77
2023/08/07 05:10:59;;;;;;;80.93;52.22;;;15.40;91.00;;;;;;4942749;28;90817;-76
2023/08/07 05:13:25;;;;;;;82.55;52.42;;;15.40;90.80;;;;;;4943376;28;89830;-77
2023/08/07 05:15:51;;;;;;;81.22;52.10;;;15.40;90.90;;;;;;4944582;28;89989;-77
2023/08/07 05:18:16;;;;;;;80.00;51.80;;;15.40;91.00;;;;;;4945057;28;90160;-77
2023/08/07 05:20:42;;;;;;;82.10;52.42;;;15.50;91.00;;;;;;4955414;28;91325;-78
2023/08/07 05:23:08;;;;;;;80.03;52.05;;;15.50;90.70;;;;;;4950824;28;92156;-73
2023/08/07 05:25:34;;;;;;;80.53;52.35;;;15.50;90.80;;;;;;4929834;28;89359;-79
2023/08/07 05:28:00;;;;;;;80.90;52.47;;;15.50;90.30;;;;;;4937134;28;91891;-78
2023/08/07 05:30:25;;;;;;;83.00;52.13;;;15.50;90.70;;;;;;4954824;28;94711;-77
2023/08/07 05:32:51;;;;;;;82.20;52.25;;;15.60;90.50;;;;;;4948633;28;94648;-74
2023/08/07 05:35:16;;;;;;;81.32;51.95;;;15.60;90.70;;;;;;4931828;28;89539;-77
2023/08/07 05:37:42;;;;;;;80.72;52.28;;;15.60;90.60;;;;;;4943527;28;90867;-73
2023/08/07 05:40:08;;;;;;;80.43;52.17;;;15.60;90.40;;;;;;4949564;28;90261;-72
2023/08/07 05:42:34;;;;;;;82.78;52.42;;;15.70;90.60;;;;;;4959533;28;89480;-76
2023/08/07 05:45:00;;;;;;;80.38;52.45;;;15.70;90.00;;;;;;4933920;28;90734;-73
2023/08/07 05:47:26;;;;;;;80.93;52.38;;;15.70;89.70;;;;;;4933131;28;88773;-74
2023/08/07 05:49:52;;;;;;;80.68;52.20;;;15.70;89.80;;;;;;4952002;28;92335;-78
2023/08/07 05:52:18;;;;;;;81.90;52.38;;;15.70;90.00;;;;;;4959667;28;92506;-76
2023/08/07 05:54:43;;;;;;;80.45;52.38;;;15.70;89.30;;;;;;4951345;28;94565;-79
2023/08/07 05:57:10;;;;;;;79.85;52.33;;;15.70;89.50;;;;;;4952669;28;89819;-72
2023/08/07 05:59:36;;;;;;;80.88;51.97;;;15.70;89.00;;;;;;4973530;28;91751;-77
2023/08/07 06:02:03;;;;;;;79.43;51.95;;;15.70;89.20;;;;;;4951615;28;90443;-80
2023/08/07 06:04:28;;;;;;;81.25;51.92;;;15.80;90.70;;;;;;4968370;28;89231;-79
2023/08/07 06:06:54;;;;;;;81.97;52.30;;;15.80;89.80;;;;;;4970161;28;90272;-79
2023/08/07 06:09:21;;;;;;;79.82;52.53;;;15.80;90.40;;;;;;4963729;28;89339;-78
2023/08/07 06:11:47;;;;;;;80.15;52.38;;;15.80;89.40;;;;;;4959634;28;88675;-77
2023/08/07 06:14:13;;;;;;;80.22;52.47;;;15.80;89.60;;;;;;4956919;28;92648;-78
2023/08/07 06:16:39;;;;;;;82.38;52.65;;;15.80;89.30;;;;;;4954320;28;89305;-80
2023/08/07 06:19:04;;;;;;;80.90;52.20;;;15.80;89.20;;;;;;4959830;28;92234;-76
2023/08/07 06:21:30;;;;;;;80.88;52.75;;;15.90;89.80;;;;;;4967621;28;89491;-78
2023/08/07 06:23:56;;;;;;;81.70;52.55;;;15.90;89.10;;;;;;4940432;28;90908;-75
2023/08/07 06:26:22;;;;;;;81.07;52.58;;;15.90;89.00;;;;;;4958531;28;91097;-80
2023/08/07 06:28:48;;;;;;;82.93;53.33;;;15.90;88.90;;;;;;4966314;28;93471;-76
2023/08/07 06:31:15;;;;;;;81.43;52.15;;;15.90;90.20;;;;;;4940454;28;91113;-80
2023/08/07 06:33:41;;;;;;;81.28;52.65;;;16.00;89.80;;;;;;4951622;28;90079;-80
2023/08/07 06:36:08;;;;;;;81.78;52.72;;;16.00;90.00;;;;;;4968011;28;88651;-81
2023/08/07 06:38:34;;;;;;;80.97;52.55;;;16.00;89.10;;;;;;4972592;28;90869;-79
2023/08/07 06:40:59;;;;;;;80.53;52.22;;;16.00;88.70;;;;;;4956851;28;91359;-82
2023/08/07 06:43:25;;;;;;;82.57;52.90;;;16.00;88.50;;;;;;4963696;28;91609;-81
2023/08/07 06:45:54;;;;;;;82.72;52.97;;;16.00;88.20;;;;;;4971624;28;90328;-74
2023/08/07 06:48:19;;;;;;;81.75;52.65;;;16.10;88.30;;;;;;4973097;28;91648;-78
2023/08/07 06:50:50;;;;;;;81.65;52.67;;;16.10;87.70;;;;;;4972625;28;91813;-76
2023/08/07 06:53:15;;;;;;;82.40;52.70;;;16.10;88.50;;;;;;4970707;28;90630;-74
2023/08/07 06:55:42;;;;;;;81.22;52.60;;;16.10;87.80;;;;;;4952726;28;90031;-76
2023/08/07 06:58:08;;;;;;;81.43;52.38;;;16.20;88.40;;;;;;4957038;28;92633;-79
2023/08/07 07:00:35;;;;;;;80.78;52.20;;;16.20;88.30;;;;;;4972389;28;89940;-77
2023/08/07 07:03:01;;;;;;;81.60;52.83;;;16.20;89.30;;;;;;4951444;28;92525;-80
2023/08/07 07:05:27;;;;;;;81.30;52.38;;;16.30;88.00;;;;;;4956706;28;89523;-81
2023/08/07 07:07:52;;;;;;;83.00;52.55;;;16.30;88.30;;;;;;4952690;28;92628;-73
2023/08/07 07:10:18;;;;;;;82.57;52.58;;;16.30;87.50;;;;;;4972891;28;89643;-81
2023/08/07 07:12:43;;;;;;;81.57;52.40;;;16.30;87.50;;;;;;4973975;28;89047;-79
2023/08/07 07:15:09;;;;;;;82.20;52.35;;;16.40;89.10;;;;;;4971964;28;92853;-73
2023/08/07 07:17:35;;;;;;;80.65;52.03;;;16.40;87.90;;;;;;4974166;28;92649;-77
2023/08/07 07:20:01;;;;;;;80.38;52.03;;;16.50;90.20;;;;;;4979560;28;90483;-75
2023/08/07 07:22:28;;;;;;;81.68;52.33;;;16.50;87.90;;;;;;4980471;28;88964;-80
2023/08/07 07:24:54;;;;;;;82.15;52.25;;;16.50;87.90;;;;;;4977312;28;88628;-74
2023/08/07 07:27:21;;;;;;;81.40;52.13;;;16.60;87.30;;;;;;4956389;28;90200;-78
2023/08/07 07:29:47;;;;;;;81.45;52.40;;;16.60;91.20;;;;;;4973866;28;89642;-76
2023/08/07 07:32:13;;;;;;;83.13;52.35;;;16.70;90.10;;;;;;4977650;28;90262;-75
2023/08/07 07:34:39;;;;;;;82.22;52.17;;;16.70;91.20;;;;;;4959341;28;89433;-75
2023/08/07 07:37:04;;;;;;;83.75;52.45;;;16.70;87.50;;;;;;4944164;28;91518;-80
2023/08/07 07:39:30;;;;;;;81.70;52.03;;;16.80;89.70;;;;;;4961458;28;89209;-78
2023/08/07 07:41:56;;;;;;;81.40;52.33;;;16.80;89.10;;;;;;4960389;28;89161;-74
2023/08/07 07:44:22;;;;;;;81.82;52.15;;;16.90;88.10;;;;;;4955146;28;93103;-81
2023/08/07 07:46:47;;;;;;;82.10;52.55;;;16.90;89.80;;;;;;4947145;28;90968;-80
2023/08/07 07:49:13;;;;;;;82.53;51.85;;;16.90;89.00;;;;;;4956373;28;89376;-75
2023/08/07 07:51:40;;;;;;;83.43;52.72;;;17.00;87.90;;;;;;4964226;28;90830;-78
2023/08/07 07:54:05;;;;;;;82.18;52.42;;;17.00;90.60;;;;;;4949032;28;89653;-81
2023/08/07 07:56:31;;;;;;;82.65;52.67;;;17.00;89.50;;;;;;4950794;28;90715;-79
2023/08/07 07:58:57;;;;;;;82.70;52.45;;;17.10;90.80;;;;;;4942589;28;91382;-76
2023/08/07 08:01:23;;;;;;;83.05;52.40;;;17.10;88.60;;;;;;4943348;28;92894;-78
2023/08/07 08:03:48;;;;;;;83.30;52.42;;;17.20;89.70;;;;;;4956534;28;91492;-76
2023/08/07 08:06:14;;;;;;;84.68;52.53;;;17.20;89.30;;;;;;4956112;28;89049;-74
2023/08/07 08:08:40;;;;;;;82.38;52.22;;;17.20;88.50;;;;;;4937170;28;90128;-78
2023/08/07 08:11:05;;;;;;;84.63;52.58;;;17.30;86.60;;;;;;4951143;28;90436;-74
2023/08/07 08:13:31;;;;;;;82.93;52.38;;;17.30;87.50;;;;;;4940198;28;88897;-73
2023/08/07 08:15:57;;;;;;;83.47;52.58;;;17.30;86.80;;;;;;4928270;28;92039;-73
2023/08/07 08:18:23;;;;;;;82.53;52.10;;;17.40;91.00;;;;;;4931985;28;89634;-79
2023/08/07 08:20:48;;;;;;;84.78;52.58;;;17.40;86.60;;;;;;4941534;28;90449;-76
2023/08/07 08:23:14;;;;;;;84.80;52.45;;;17.50;89.30;;;;;;4946442;28;90708;-75
2023/08/07 08:25:39;;;;;;;84.03;52.75;;;17.50;88.60;;;;;;4949639;28;90230;-76
2023/08/07 08:28:05;;;;;;;83.75;52.70;;;17.60;87.50;;;;;;4944919;28;89743;-78
2023/08/07 08:30:31;;;;;;;82.72;52.42;;;17.60;85.60;;;;;;4945187;28;89164;-73
2023/08/07 08:32:56;;;;;;;83.88;52.55;;;17.70;86.80;;;;;;4943879;28;89446;-75
2023/08/07 08:35:22;;;;;;;82.88;52.45;;;17.70;84.60;;;;;;4954257;28;93735;-78
2023/08/07 08:37:48;;;;;;;82.50;52.25;;;17.70;85.40;;;;;;4944684;28;93188;-79
2023/08/07 08:40:17;;;;;;;85.22;52.65;;;17.80;84.60;;;;;;4943897;28;89836;-75
2023/08/07 08:42:44;;;;;;;85.07;52.58;;;17.80;84.30;;;;;;4938587;28;91813;-74
2023/08/07 08:45:13;;;;;;;86.75;52.92;;;17.90;86.70;;;;;;4953769;28;92937;-78
2023/08/07 08:47:40;;;;;;;85.53;53.40;;;18.00;89.80;;;;;;4950207;28;89532;-76
2023/08/07 08:50:11;;;;;;;83.85;52.72;;;18.10;86.20;;;;;;4942774;28;91515;-78
2023/08/07 08:52:38;;;;;;;84.05;52.95;;;18.10;85.60;;;;;;4944553;28;91256;-74
2023/08/07 08:55:04;;;;;;;83.32;52.85;;;18.20;84.30;;;;;;4958039;28;89758;-79
2023/08/07 08:57:32;;;;;;;83.75;52.80;;;18.20;84.10;;;;;;4974021;28;90989;-74
2023/08/07 08:59:58;;;;;;;85.85;53.45;;;18.20;83.60;;;;;;4967209;28;94481;-74
2023/08/07 09:02:25;;;;;;;84.50;52.63;;;18.20;87.60;;;;;;4953205;28;91443;-72
2023/08/07 09:04:50;;;;;;;87.50;53.42;;;18.40;84.60;;;;;;4968912;28;89264;-78
2023/08/07 09:07:17;;;;;;;86.68;53.15;;;18.50;86.00;;;;;;4957062;28;90731;-77
2023/08/07 09:09:44;;;;;;;85.18;53.38;;;18.50;82.70;;;;;;4953087;28;92322;-80
2023/08/07 09:12:25;;;;;;;85.60;53.10;;;18.50;83.10;;;;;;4954163;28;90097;-74
2023/08/07 09:14:56;;;;;;;83.97;52.83;;;18.50;83.10;;;;;;4973000;28;89993;-79
2023/08/07 09:17:26;;;;;;;85.22;53.08;;;18.60;83.00;;;;;;4974831;28;89400;-80
2023/08/07 09:19:53;;;;;;;85.33;52.90;;;18.60;82.80;;;;;;4970928;28;91769;-79
2023/08/07 09:22:19;;;;;;;84.13;52.83;;;18.60;82.30;;;;;;4937859;28;91824;-75
2023/08/07 09:24:45;;;;;;;84.90;52.92;;;18.70;82.50;;;;;;4971107;28;89619;-74
2023/08/07 09:27:11;;;;;;;85.78;53.28;;;18.80;82.50;;;;;;4956299;28;90782;-78
2023/08/07 09:29:40;;;;;;;85.75;53.08;;;18.80;81.70;;;;;;4957823;28;90700;-76
2023/08/07 09:32:11;;;;;;;85.13;53.22;;;18.90;81.60;;;;;;4972302;28;90202;-76
2023/08/07 09:34:39;;;;;;;85.82;53.15;;;18.80;82.10;;;;;;4936417;28;92783;-78
2023/08/07 09:37:05;;;;;;;85.20;52.90;;;18.80;82.00;;;;;;4916736;28;92539;-76
2023/08/07 09:39:30;;;;;;;85.28;53.00;;;18.90;82.20;;;;;;4950181;28;90154;-78
2023/08/07 09:41:56;;;;;;;85.97;53.78;;;18.90;82.00;;;;;;4921245;28;91657;-78
2023/08/07 09:44:21;;;;;;;86.25;53.45;;;19.00;81.80;;;;;;4918426;28;91662;-76
2023/08/07 09:46:47;;;;;;;84.95;53.20;;;19.10;81.40;;;;;;4955723;28;89216;-77
2023/08/07 09:49:13;;;;;;;86.20;53.30;;;19.00;81.40;;;;;;4954467;28;89085;-73
2023/08/07 09:51:43;;;;;;;86.20;53.38;;;19.00;81.40;;;;;;4964378;28;90751;-78
2023/08/07 09:54:09;;;;;;;86.03;53.45;;;19.00;81.60;;;;;;4960473;28;90866;-77
2023/08/07 09:56:36;;;;;;;84.70;53.55;;;19.00;81.20;;;;;;4949064;28;89339;-78
2023/08/07 09:59:01;;;;;;;85.38;53.55;;;19.00;80.90;;;;;;4944890;28;91620;-74
2023/08/07 10:01:27;;;;;;;85.85;53.85;;;19.10;81.00;;;;;;4961064;28;94019;-74
2023/08/07 10:03:53;;;;;;;85.03;53.75;;;19.20;81.20;;;;;;4953322;28;89330;-79
2023/08/07 10:06:20;;;;;;;88.13;54.03;;;19.20;81.10;;;;;;4974663;28;89481;-78
2023/08/07 10:08:46;;;;;;;86.00;53.45;;;19.30;80.80;;;;;;4958829;28;89644;-75
2023/08/07 10:11:13;;;;;;;85.32;53.72;;;19.30;82.00;;;;;;4971996;28;89878;-79
2023/08/07 10:13:40;;;;;;;85.93;54.10;;;19.30;81.10;;;;;;4951181;28;91200;-75
2023/08/07 10:16:07;;;;;;;85.88;53.67;;;19.30;81.70;;;;;;4955999;28;89423;-79
2023/08/07 10:18:33;;;;;;;85.07;53.47;;;19.30;82.00;;;;;;4971794;28;89240;-79
2023/08/07 10:21:01;;;;;;;86.28;53.58;;;19.20;82.10;;;;;;4972167;28;89197;-75
2023/08/07 10:23:27;;;;;;;85.78;53.70;;;19.20;82.10;;;;;;4959821;28;94822;-73
2023/08/07 10:25:53;;;;;;;85.82;53.35;;;19.30;83.00;;;;;;4972141;28;89970;-79
2023/08/07 10:28:20;;;;;;;86.57;53.97;;;19.30;82.50;;;;;;4971277;28;89500;-75
2023/08/07 10:30:45;;;;;;;85.43;53.38;;;19.40;84.30;;;;;;4976624;28;90476;-79
2023/08/07 10:33:13;;;;;;;86.05;53.35;;;19.40;81.60;;;;;;4973424;28;93051;-74
2023/08/07 10:35:50;;;;;;;86.75;53.45;;;19.50;81.50;;;;;;4965860;28;89486;-76
2023/08/07 10:38:19;;;;;;;84.88;53.33;;;19.50;81.60;;;;;;4965153;28;89326;-75
2023/08/07 10:41:23;;;;;;;86.10;53.72;;;19.60;82.10;;;;;;4943845;28;89364;-77
2023/08/07 10:43:49;;;;;;;86.13;53.40;;;19.50;82.70;;;;;;4875006;28;89635;-77
2023/08/07 10:46:19;;;;;;;85.85;53.20;;;19.50;81.80;;;;;;4860292;28;90070;-76
2023/08/07 10:48:54;;;;;;;84.40;52.88;;;19.60;81.30;;;;;;4921011;28;90332;-77
2023/08/07 10:51:20;;;;;;;85.00;53.33;;;19.60;80.80;;;;;;4964733;28;89728;-77
2023/08/07 10:53:51;;;;;;;85.15;53.33;;;19.60;81.40;;;;;;4976071;28;91889;-78
2023/08/07 10:56:18;;;;;;;;;;;19.70;81.10;;;;;;4974556;28;89006;-73
2023/08/07 10:58:50;;;;;;;85.93;53.00;;;19.70;81.70;;;;;;4978225;28;90122;-76
2023/08/07 11:01:34;;;;;;;85.10;53.17;;;19.80;81.50;;;;;;4944955;28;90895;-76
2023/08/07 11:04:08;;;;;;;86.20;53.22;;;19.80;80.60;;;;;;4974635;28;89983;-77
2023/08/07 11:06:35;;;;;;;86.18;53.50;;;19.80;80.20;;;;;;4977460;28;88817;-80
2023/08/07 11:09:06;;;;;;;86.80;53.72;;;19.90;80.50;;;;;;4949852;28;90748;-76
2023/08/07 11:11:40;;;;;;;86.85;53.58;;;19.90;80.90;;;;;;4972287;28;90627;-78
2023/08/07 11:14:12;;;;;;;85.25;53.35;;;19.90;80.20;;;;;;4974524;28;90073;-76
2023/08/07 11:16:38;;;;;;;86.07;53.25;;;19.90;80.00;;;;;;4972672;28;93096;-78
2023/08/07 11:19:05;;;;;;;85.20;53.30;;;19.90;79.90;;;;;;4972822;28;89133;-74
2023/08/07 11:21:34;;;;;;;86.38;53.17;;;19.90;79.30;;;;;;4978997;28;89395;-75
2023/08/07 11:24:00;;;;;;;85.43;53.22;;;20.00;80.00;;;;;;4972146;28;92823;-77
2023/08/07 11:26:27;;;;;;;85.57;53.00;;;20.00;79.10;;;;;;4949646;28;89613;-75
2023/08/07 11:28:54;;;;;;;85.20;53.30;;;20.00;79.00;;;;;;4965093;28;89307;-79
2023/08/07 11:31:20;;;;;;;85.88;53.72;;;20.10;79.10;;;;;;4970694;28;89322;-76
2023/08/07 11:33:46;;;;;;;85.43;53.10;;;20.20;79.50;;;;;;4971757;28;91203;-76
2023/08/07 11:36:13;;;;;;;86.05;53.55;;;20.20;78.40;;;;;;4969732;28;92175;-74
2023/08/07 11:38:44;;;;;;;86.28;53.78;;;20.30;78.40;;;;;;4945496;28;91206;-75
2023/08/07 11:41:11;;;;;;;85.75;53.33;;;20.30;78.80;;;;;;4942780;28;93178;-75
2023/08/07 11:43:38;;;;;;;85.43;53.10;;;20.30;78.40;;;;;;4957730;28;93942;-78
2023/08/07 11:46:06;;;;;;;86.10;53.50;;;20.30;78.10;;;;;;4964881;28;89526;-74
2023/08/07 11:48:36;;;;;;;85.55;53.33;;;20.30;79.60;;;;;;4961250;28;89299;-75
2023/08/07 11:51:03;;;;;;;85.68;53.25;;;20.30;77.70;;;;;;4960733;28;90321;-77
2023/08/07 11:53:35;;;;;;;85.18;53.15;;;20.40;77.20;;;;;;4974637;28;90358;-72
2023/08/07 11:56:10;;;;;;;87.80;53.63;;;20.40;77.10;;;;;;4964838;28;89314;-76
2023/08/07 11:58:41;;;;;;;87.28;53.47;;;20.40;77.80;;;;;;4951536;28;89666;-74
2023/08/07 12:01:10;;;;;;;;;;;20.50;77.00;;;;;;4965522;28;90336;-73
2023/08/07 12:03:40;;;;;;;85.22;53.08;;;20.60;78.60;;;;;;4972588;28;90329;-76
2023/08/07 12:06:08;;;;;;;85.72;53.17;;;20.60;77.20;;;;;;4954852;28;92193;-78
2023/08/07 12:08:35;;;;;;;86.22;53.40;;;20.60;77.40;;;;;;4956682;28;91424;-77
2023/08/07 12:11:04;;;;;;;86.05;53.17;;;20.60;77.40;;;;;;4976515;28;89786;-78
2023/08/07 12:13:31;;;;;;;85.85;53.22;;;20.60;78.10;;;;;;4935489;28;90316;-77
2023/08/07 12:15:57;;;;;;;85.18;52.92;;;20.60;77.80;;;;;;4975572;28;91684;-78
2023/08/07 12:18:26;;;;;;;85.72;53.15;;;20.60;78.30;;;;;;4974287;28;90839;-78
2023/08/07 12:20:56;;;;;;;87.30;53.35;;;20.60;78.00;;;;;;4961339;28;88467;-78
2023/08/07 12:23:22;;;;;;;85.95;53.15;;;20.60;79.20;;;;;;4958496;28;93382;-77
2023/08/07 12:25:48;;;;;;;86.10;53.20;;;20.70;77.90;;;;;;4976239;28;89493;-78